Latest Coastal Weather Observations for Larapuna (Eddystone Point)

IDT60701

Issued at 1:55 pm EDT Saturday 25 October 2014 (issued every 10 minutes, with the page automatically refreshed every 10 minutes)

About coastal observations | Map of coastal stations | Coastal observations for TAS | Marine services | Other Formats
Station Details ID: 092045 Name: LARAPUNA (EDDYSTONE POINT) Lat: -40.99 Lon: 148.35 Height: 19.7 m
Data from the previous 72 hours. | See also: Recent months at Larapuna (Eddystone Point)
Date/Time
EDT
Temp

°C
Wind Pressure Rain
since 9am
mm
Weather Cloud Vis
km
Sea
Height
m
Swell
Dir
 
Speed
knots
Gust
knots
hPa Trend Height
m
Period
s
Dir
25/01:30pm 16.9 ESE 8 11 1016.2 - 0.0 - - - - - - -
25/01:00pm 16.8 ESE 7 9 1016.0 - 0.0 - - - - - - -
25/12:30pm 16.4 SE 5 6 1016.0 - 0.0 - - - - - - -
25/12:00pm 17.1 SE 4 6 1016.0 - 0.0 - - - - - - -
25/11:30am 17.3 SSE 7 8 1016.1 - 0.0 - - - - - - -
25/11:00am 17.5 SE 5 7 1016.0 - 0.0 - - - - - - -
25/10:30am 18.0 S 8 9 1015.5 - 0.0 - - - - - - -
25/10:00am 18.6 S 9 11 1015.5 - 0.0 - - - - - - -
25/09:30am 17.4 SSW 8 8 1015.2 - 0.0 - - - - - - -
25/09:00am 16.8 S 6 8 1014.8 - 0.0 - - - - - - -
25/08:30am 15.9 WNW 2 4 1014.4 - 0.0 - - - - - - -
25/08:00am 15.1 CALM 0 3 1013.9 - 0.0 - - - - - - -
25/07:30am 14.0 W 5 7 1013.4 - 0.0 - - - - - - -
25/07:00am 13.2 NW 8 10 1012.9 - 0.0 - - - - - - -
25/06:30am 13.0 NW 8 10 1012.5 - 0.0 - - - - - - -
25/06:00am 13.0 NW 8 9 1011.8 - 0.0 - - - - - - -
25/05:30am 13.4 NW 8 9 1011.1 - 0.0 - - - - - - -
25/05:00am 13.4 NNW 6 8 1010.7 - 0.0 - - - - - - -
25/04:30am 13.4 W 6 10 1010.4 - 0.0 - - - - - - -
25/04:00am 13.9 W 6 10 1010.1 - 0.0 - - - - - - -
25/03:30am 14.4 W 4 7 1009.9 - 0.0 - - - - - - -
25/03:00am 14.1 SSW 4 7 1009.0 - 0.0 - - - - - - -
25/02:30am 14.3 WNW 11 18 1008.7 - 0.0 - - - - - - -
25/02:00am 14.5 WNW 17 25 1008.6 - 0.0 - - - - - - -
25/01:30am 14.7 WNW 15 21 1009.1 - 0.0 - - - - - - -
25/01:26am 14.8 WNW 15 20 1009.0 - 0.0 - - - - - - -
25/01:00am 14.6 NW 8 10 1009.1 - 0.0 - - - - - - -
25/12:30am 14.9 WNW 9 14 1009.3 - 0.0 - - - - - - -
25/12:00am 15.1 NW 11 17 1009.4 - 0.0 - - - - - - -
 
Date/Time
EDT
Temp

°C
Wind Pressure Rain
since 9am
mm
Weather Cloud Vis
km
Sea
Height
m
Swell
Dir
 
Speed
knots
Gust
knots
hPa Trend Height
m
Period
s
Dir
24/11:30pm 15.3 NW 10 14 1009.3 - 0.0 - - - - - - -
24/11:00pm 15.6 NW 9 13 1009.5 - 0.0 - - - - - - -
24/10:30pm 15.0 NNW 8 11 1009.5 - 0.0 - - - - - - -
24/10:00pm 14.7 NNW 7 10 1009.6 - 0.0 - - - - - - -
24/09:30pm 14.7 N 7 8 1009.9 - 0.0 - - - - - - -
24/09:00pm 14.8 N 7 9 1009.8 - 0.0 - - - - - - -
24/08:30pm 15.0 N 6 8 1009.9 - 0.0 - - - - - - -
24/08:00pm 15.2 NNW 7 9 1009.9 - 0.0 - - - - - - -
24/07:30pm 15.2 N 10 12 1009.9 - 0.0 - - - - - - -
24/07:00pm 15.4 NNE 12 14 1009.6 - 0.0 - - - - - - -
24/06:30pm 15.7 NNE 15 18 1009.7 - 0.0 - - - - - - -
24/06:00pm 15.5 NE 14 16 1010.1 - 0.0 - - - - - - -
24/05:30pm 15.5 NE 13 15 1010.3 - 0.0 - - - - - - -
24/05:00pm 15.5 NE 13 15 1010.9 - 0.0 - - - - - - -
24/04:30pm 15.6 NE 16 19 1011.0 - 0.0 - - - - - - -
24/04:00pm 15.6 ENE 16 20 1011.6 - 0.0 - - - - - - -
24/03:30pm 15.7 ENE 17 20 1012.2 - 0.0 - - - - - - -
24/03:00pm 15.8 NE 18 21 1012.8 - 0.0 - - - - - - -
24/02:30pm 15.9 NE 16 20 1013.6 - 0.0 - - - - - - -
24/02:00pm 16.0 ENE 15 17 1014.1 - 0.0 - - - - - - -
24/01:30pm 16.5 ENE 14 17 1014.7 - 0.0 - - - - - - -
24/01:00pm 16.0 NE 14 17 1015.2 - 0.0 - - - - - - -
24/12:30pm 16.0 NE 14 17 1015.7 - 0.0 - - - - - - -
24/12:00pm 15.7 NE 15 17 1016.3 - 0.0 - - - - - - -
24/11:30am 15.5 ENE 15 17 1016.8 - 0.0 - - - - - - -
24/11:00am 15.2 ENE 17 20 1017.2 - 0.0 - - - - - - -
24/10:30am 15.2 NE 17 21 1017.7 - 0.0 - - - - - - -
24/10:00am 14.8 ENE 18 23 1018.0 - 0.0 - - - - - - -
24/09:30am 14.6 NE 20 25 1018.6 - 0.0 - - - - - - -
24/09:00am 14.7 ENE 20 24 1019.0 - 0.0 - - - - - - -
24/08:30am 14.6 ENE 19 23 1019.4 - 0.0 - - - - - - -
24/08:00am 14.3 ENE 18 22 1019.8 - 0.0 - - - - - - -
24/07:30am 14.2 ENE 20 23 1019.9 - 0.0 - - - - - - -
24/07:00am 14.1 E 19 23 1019.9 - 0.0 - - - - - - -
24/06:30am 14.0 E 18 21 1020.3 - 0.0 - - - - - - -
24/06:00am 13.8 E 16 21 1020.6 - 0.0 - - - - - - -
24/05:30am 13.7 E 18 22 1020.8 - 0.0 - - - - - - -
24/05:00am 13.6 E 17 21 1021.1 - 0.0 - - - - - - -
24/04:30am 13.5 E 19 22 1021.3 - 0.0 - - - - - - -
24/04:00am 13.6 E 16 20 1021.7 - 0.0 - - - - - - -
24/03:30am 13.5 E 13 16 1022.1 - 0.0 - - - - - - -
24/03:00am 13.5 E 13 19 1022.1 - 0.0 - - - - - - -
24/02:30am 13.3 E 14 18 1022.6 - 0.0 - - - - - - -
24/02:00am 13.2 E 16 21 1022.8 - 0.0 - - - - - - -
24/01:30am 13.1 E 12 15 1023.4 - 0.0 - - - - - - -
24/01:00am 13.1 E 13 18 1023.9 - 0.0 - - - - - - -
24/12:30am 13.0 E 15 21 1024.4 - 0.0 - - - - - - -
24/12:00am 13.1 E 15 18 1024.6 - 0.0 - - - - - - -
 
Date/Time
EDT
Temp

°C
Wind Pressure Rain
since 9am
mm
Weather Cloud Vis
km
Sea
Height
m
Swell
Dir
 
Speed
knots
Gust
knots
hPa Trend Height
m
Period
s
Dir
23/11:30pm 13.0 ESE 16 20 1025.0 - 0.0 - - - - - - -
23/11:00pm 13.0 ESE 18 21 1025.2 - 0.0 - - - - - - -
23/10:30pm 12.9 ESE 17 22 1025.5 - 0.0 - - - - - - -
23/10:00pm 12.8 SE 17 21 1025.8 - 0.0 - - - - - - -
23/09:30pm 12.9 SE 16 21 1025.6 - 0.0 - - - - - - -
23/09:00pm 12.7 SE 17 22 1025.3 - 0.0 - - - - - - -
23/08:30pm 12.7 SE 16 20 1025.0 - 0.0 - - - - - - -
23/08:00pm 12.6 SE 16 24 1024.7 - 0.0 - - - - - - -
23/07:30pm 12.4 SE 19 23 1024.7 - 0.0 - - - - - - -
23/07:00pm 12.7 SE 18 23 1024.4 - 0.0 - - - - - - -
23/06:30pm 13.0 SSE 20 26 1024.2 - 0.0 - - - - - - -
23/06:00pm 13.5 SSE 18 23 1024.2 - 0.0 - - - - - - -
23/05:30pm 13.7 SE 20 25 1024.0 - 0.0 - - - - - - -
23/05:00pm 14.7 SSE 22 26 1024.1 - 0.0 - - - - - - -
23/04:30pm 14.4 SSE 21 26 1023.9 - 0.0 - - - - - - -
23/04:00pm 15.2 SSE 21 26 1023.9 - 0.0 - - - - - - -
23/03:30pm 15.2 SSE 20 25 1023.9 - 0.0 - - - - - - -
23/03:00pm 15.3 SSE 22 26 1024.0 - 0.0 - - - - - - -
23/02:30pm 15.7 SSE 23 28 1024.0 - 0.0 - - - - - - -
23/02:00pm 15.4 SSE 23 27 1024.2 - 0.0 - - - - - - -
23/01:30pm 14.8 SSE 23 28 1024.2 - 0.0 - - - - - - -
23/01:00pm 15.2 SSE 24 29 1024.0 - 0.0 - - - - - - -
23/12:30pm 15.5 S 26 30 1023.9 - 0.0 - - - - - - -
23/12:00pm 15.1 SSE 25 30 1024.1 - 0.0 - - - - - - -
23/11:30am 14.7 S 26 31 1023.9 - 0.0 - - - - - - -
23/11:00am 14.4 S 28 33 1024.0 - 0.0 - - - - - - -
23/10:30am 14.8 S 29 34 1023.9 - 0.0 - - - - - - -
23/10:00am 14.0 S 28 34 1023.7 - 0.0 - - - - - - -
23/09:30am 13.5 S 30 34 1023.3 - 0.0 - - - - - - -
23/09:00am 13.9 S 31 37 1022.9 - 0.0 - - - - - - -
23/08:30am 13.2 S 32 38 1022.5 - 0.0 - - - - - - -
23/08:00am 12.9 S 32 39 1022.1 - 0.0 - - - - - - -
23/07:30am 12.6 S 32 37 1021.5 - 0.0 - - - - - - -
23/07:00am 12.7 S 29 37 1021.0 - 0.0 - - - - - - -
23/06:30am 12.5 S 33 39 1020.6 - 0.0 - - - - - - -
23/06:14am 12.6 S 30 40 1020.5 - 0.0 - - - - - - -
23/06:00am 13.0 S 32 38 1020.2 - 0.0 - - - - - - -
23/05:30am 13.5 S 29 34 1020.1 - 0.0 - - - - - - -
23/05:00am 13.8 S 29 36 1019.6 - 0.0 - - - - - - -
23/04:30am 13.9 S 29 35 1019.2 - 0.0 - - - - - - -
23/04:00am 13.9 SSE 30 36 1018.9 - 0.0 - - - - - - -
23/03:30am 13.9 SSE 29 34 1018.9 - 0.0 - - - - - - -
23/03:00am 13.9 SSE 26 32 1018.8 - 0.0 - - - - - - -
23/02:30am 14.0 SSE 25 29 1018.7 - 0.0 - - - - - - -
23/02:00am 13.9 S 25 32 1018.5 - 0.0 - - - - - - -
23/01:30am 13.9 SSE 25 31 1018.2 - 0.0 - - - - - - -
23/01:00am 14.0 S 26 35 1018.1 - 0.0 - - - - - - -
23/12:30am 14.0 SSE 26 32 1018.2 - 0.0 - - - - - - -
23/12:00am 14.7 SSE 18 23 1018.3 - 0.0 - - - - - - -
 
Date/Time
EDT
Temp

°C
Wind Pressure Rain
since 9am
mm
Weather Cloud Vis
km
Sea
Height
m
Swell
Dir
 
Speed
knots
Gust
knots
hPa Trend Height
m
Period
s
Dir
22/11:30pm 16.2 S 27 32 1017.5 - 0.0 - - - - - - -
22/11:27pm 16.7 S 28 32 1017.2 - 0.0 - - - - - - -
22/11:26pm 16.9 SSW 15 32 1017.3 - 0.0 - - - - - - -
22/11:00pm 16.1 S 16 23 1016.4 - 0.0 - - - - - - -
22/10:30pm 16.1 NW 12 16 1015.1 - 0.0 - - - - - - -
22/10:00pm 16.1 NNW 11 14 1014.8 - 0.0 - - - - - - -
22/09:30pm 16.5 NW 11 15 1014.7 - 0.0 - - - - - - -
22/09:00pm 16.4 NW 14 17 1014.9 - 0.0 - - - - - - -
22/08:30pm 16.1 NNW 13 17 1014.2 - 0.0 - - - - - - -
22/08:00pm 16.5 NNW 13 17 1014.6 - 0.0 - - - - - - -
22/07:30pm 17.6 NW 16 23 1015.4 - 0.0 - - - - - - -
22/07:00pm 17.4 NNW 15 19 1014.7 - 0.0 - - - - - - -
22/06:30pm 18.4 NW 15 20 1014.8 - 0.0 - - - - - - -
22/06:00pm 16.7 NNW 15 18 1015.0 - 0.0 - - - - - - -
22/05:30pm 16.7 N 13 17 1015.2 - 0.0 - - - - - - -
22/05:00pm 16.3 N 14 16 1015.2 - 0.0 - - - - - - -
22/04:30pm 17.0 N 16 20 1015.4 - 0.0 - - - - - - -
22/04:00pm 17.0 N 18 22 1015.3 - 0.0 - - - - - - -
22/03:30pm 16.6 N 17 20 1015.7 - 0.0 - - - - - - -
22/03:00pm 16.6 NNE 18 22 1016.2 - 0.0 - - - - - - -
22/02:30pm 17.3 N 17 21 1016.4 - 0.0 - - - - - - -
22/02:00pm 17.2 N 15 19 1017.1 - 0.0 - - - - - - -

Other Formats:

Comma delimited format used in spreadsheet applications
http://www.bom.gov.au/fwo/IDT60701/IDT60701.94983.axf

JavaScript Object Notation format (JSON) in row-major order
http://www.bom.gov.au/fwo/IDT60701/IDT60701.94983.json